sensor_id;sensor_type;location;lat;lon;timestamp;pressure;altitude;pressure_sealevel;temperature;humidity
74936;BME280;63501;55.570;37.488;2023-11-21T00:00:51;98341.97;;;23.84;20.95
74936;BME280;63501;55.570;37.488;2023-11-21T00:03:18;98346.06;;;23.83;21.30
74936;BME280;63501;55.570;37.488;2023-11-21T00:05:44;98360.19;;;23.83;21.03
74936;BME280;63501;55.570;37.488;2023-11-21T00:08:11;98351.47;;;23.81;21.12
74936;BME280;63501;55.570;37.488;2023-11-21T00:10:38;98354.28;;;23.81;21.20
74936;BME280;63501;55.570;37.488;2023-11-21T00:13:05;98353.50;;;23.81;21.28
74936;BME280;63501;55.570;37.488;2023-11-21T00:15:33;98355.56;;;23.80;21.12
74936;BME280;63501;55.570;37.488;2023-11-21T00:18:01;98352.75;;;23.80;21.37
74936;BME280;63501;55.570;37.488;2023-11-21T00:20:27;98346.34;;;23.80;21.07
74936;BME280;63501;55.570;37.488;2023-11-21T00:22:54;98346.81;;;23.78;20.94
74936;BME280;63501;55.570;37.488;2023-11-21T00:25:21;98348.88;;;23.78;20.90
74936;BME280;63501;55.570;37.488;2023-11-21T00:27:48;98348.09;;;23.77;21.16
74936;BME280;63501;55.570;37.488;2023-11-21T00:30:14;98350.94;;;23.77;21.24
74936;BME280;63501;55.570;37.488;2023-11-21T00:32:41;98346.56;;;23.76;21.06
74936;BME280;63501;55.570;37.488;2023-11-21T00:35:10;98344.25;;;23.74;21.00
74936;BME280;63501;55.570;37.488;2023-11-21T00:37:36;98347.84;;;23.75;21.07
74936;BME280;63501;55.570;37.488;2023-11-21T00:40:04;98345.03;;;23.75;21.20
74936;BME280;63501;55.570;37.488;2023-11-21T00:42:32;98341.44;;;23.74;21.02
74936;BME280;63501;55.570;37.488;2023-11-21T00:44:59;98341.44;;;23.74;21.00
74936;BME280;63501;55.570;37.488;2023-11-21T00:47:26;98349.13;;;23.74;20.93
74936;BME280;63501;55.570;37.488;2023-11-21T00:49:52;98337.06;;;23.73;21.16
74936;BME280;63501;55.570;37.488;2023-11-21T00:52:20;98339.88;;;23.73;21.09
74936;BME280;63501;55.570;37.488;2023-11-21T00:54:47;98338.34;;;23.72;20.77
74936;BME280;63501;55.570;37.488;2023-11-21T00:57:14;98340.38;;;23.72;20.92
74936;BME280;63501;55.570;37.488;2023-11-21T00:59:47;98350.91;;;23.71;20.91
74936;BME280;63501;55.570;37.488;2023-11-21T01:02:14;98347.31;;;23.71;20.83
74936;BME280;63501;55.570;37.488;2023-11-21T01:04:40;98350.91;;;23.71;20.82
74936;BME280;63501;55.570;37.488;2023-11-21T01:07:07;98348.09;;;23.71;21.10
74936;BME280;63501;55.570;37.488;2023-11-21T01:09:35;98345.78;;;23.70;20.92
74936;BME280;63501;55.570;37.488;2023-11-21T01:12:03;98357.06;;;23.70;20.98
74936;BME280;63501;55.570;37.488;2023-11-21T01:14:29;98353.47;;;23.69;20.87
74936;BME280;63501;55.570;37.488;2023-11-21T01:16:57;98349.88;;;23.69;20.83
74936;BME280;63501;55.570;37.488;2023-11-21T01:19:24;98347.84;;;23.69;20.86
74936;BME280;63501;55.570;37.488;2023-11-21T01:21:50;98352.72;;;23.69;21.04
74936;BME280;63501;55.570;37.488;2023-11-21T01:24:18;98337.81;;;23.63;20.88
74936;BME280;63501;55.570;37.488;2023-11-21T01:26:45;98338.31;;;23.67;20.68
74936;BME280;63501;55.570;37.488;2023-11-21T01:29:12;98342.41;;;23.66;20.91
74936;BME280;63501;55.570;37.488;2023-11-21T01:31:40;98339.59;;;23.66;20.78
74936;BME280;63501;55.570;37.488;2023-11-21T01:34:07;98348.06;;;23.66;20.56
74936;BME280;63501;55.570;37.488;2023-11-21T01:36:33;98341.66;;;23.65;20.75
74936;BME280;63501;55.570;37.488;2023-11-21T01:39:00;98346.53;;;23.65;20.67
74936;BME280;63501;55.570;37.488;2023-11-21T01:41:29;98341.41;;;23.63;20.70
74936;BME280;63501;55.570;37.488;2023-11-21T01:43:58;98347.81;;;23.64;20.84
74936;BME280;63501;55.570;37.488;2023-11-21T01:46:24;98349.09;;;23.63;20.62
74936;BME280;63501;55.570;37.488;2023-11-21T01:48:51;98341.41;;;23.63;20.76
74936;BME280;63501;55.570;37.488;2023-11-21T01:51:19;98354.75;;;23.63;20.78
74936;BME280;63501;55.570;37.488;2023-11-21T01:53:46;98358.78;;;23.62;20.63
74936;BME280;63501;55.570;37.488;2023-11-21T01:56:13;98357.25;;;23.61;20.64
74936;BME280;63501;55.570;37.488;2023-11-21T01:58:40;98353.16;;;23.62;20.53
74936;BME280;63501;55.570;37.488;2023-11-21T02:01:09;98356.47;;;23.60;20.44
74936;BME280;63501;55.570;37.488;2023-11-21T02:03:36;98355.72;;;23.60;20.50
74936;BME280;63501;55.570;37.488;2023-11-21T02:06:03;98355.72;;;23.60;20.62
74936;BME280;63501;55.570;37.488;2023-11-21T02:08:30;98354.19;;;23.59;20.50
74936;BME280;63501;55.570;37.488;2023-11-21T02:10:57;98355.72;;;23.60;20.42
74936;BME280;63501;55.570;37.488;2023-11-21T02:13:24;98353.66;;;23.60;20.52
74936;BME280;63501;55.570;37.488;2023-11-21T02:15:51;98348.00;;;23.60;20.41
74936;BME280;63501;55.570;37.488;2023-11-21T02:18:21;98362.13;;;23.60;20.61
74936;BME280;63501;55.570;37.488;2023-11-21T02:20:47;98355.72;;;23.60;20.40
74936;BME280;63501;55.570;37.488;2023-11-21T02:23:15;98348.00;;;23.60;20.46
74936;BME280;63501;55.570;37.488;2023-11-21T02:25:43;98355.72;;;23.60;20.34
74936;BME280;63501;55.570;37.488;2023-11-21T02:28:10;98356.47;;;23.60;20.32
74936;BME280;63501;55.570;37.488;2023-11-21T02:30:38;98364.19;;;23.60;20.41
74936;BME280;63501;55.570;37.488;2023-11-21T02:33:04;98355.72;;;23.60;20.32
74936;BME280;63501;55.570;37.488;2023-11-21T02:35:32;98360.59;;;23.59;20.29
74936;BME280;63501;55.570;37.488;2023-11-21T02:38:00;98349.31;;;23.59;20.18
74936;BME280;63501;55.570;37.488;2023-11-21T02:40:28;98349.31;;;23.59;20.42
74936;BME280;63501;55.570;37.488;2023-11-21T02:42:54;98361.34;;;23.60;20.16
74936;BME280;63501;55.570;37.488;2023-11-21T02:45:24;98359.81;;;23.59;20.34
74936;BME280;63501;55.570;37.488;2023-11-21T02:47:51;98359.06;;;23.58;20.29
74936;BME280;63501;55.570;37.488;2023-11-21T02:50:18;98359.81;;;23.59;20.09
74936;BME280;63501;55.570;37.488;2023-11-21T02:52:45;98368.28;;;23.59;20.21
74936;BME280;63501;55.570;37.488;2023-11-21T02:55:12;98370.34;;;23.58;19.99
74936;BME280;63501;55.570;37.488;2023-11-21T02:57:40;98380.84;;;23.58;20.21
74936;BME280;63501;55.570;37.488;2023-11-21T03:00:07;98379.28;;;23.57;20.19
74936;BME280;63501;55.570;37.488;2023-11-21T03:02:34;98377.25;;;23.57;20.29
74936;BME280;63501;55.570;37.488;2023-11-21T03:05:04;98384.94;;;23.57;20.10
74936;BME280;63501;55.570;37.488;2023-11-21T03:07:31;98384.16;;;23.56;20.18
74936;BME280;63501;55.570;37.488;2023-11-21T03:09:58;98379.78;;;23.49;20.08
74936;BME280;63501;55.570;37.488;2023-11-21T03:12:25;98389.28;;;23.52;20.14
74936;BME280;63501;55.570;37.488;2023-11-21T03:14:53;98395.94;;;23.49;20.08
74936;BME280;63501;55.570;37.488;2023-11-21T03:17:20;98392.09;;;23.46;20.26
74936;BME280;63501;55.570;37.488;2023-11-21T03:19:47;98389.75;;;23.45;20.02
74936;BME280;63501;55.570;37.488;2023-11-21T03:22:14;98391.53;;;23.42;19.93
74936;BME280;63501;55.570;37.488;2023-11-21T03:24:40;98386.91;;;23.39;19.94
74936;BME280;63501;55.570;37.488;2023-11-21T03:27:07;98395.34;;;23.39;20.08
74936;BME280;63501;55.570;37.488;2023-11-21T03:29:34;98402.56;;;23.40;19.91
74936;BME280;63501;55.570;37.488;2023-11-21T03:32:02;98405.38;;;23.40;19.90
74936;BME280;63501;55.570;37.488;2023-11-21T03:34:29;98406.94;;;23.41;19.69
74936;BME280;63501;55.570;37.488;2023-11-21T03:36:56;98410.50;;;23.42;19.71
74936;BME280;63501;55.570;37.488;2023-11-21T03:39:23;98412.06;;;23.43;19.93
74936;BME280;63501;55.570;37.488;2023-11-21T03:41:50;98408.47;;;23.42;19.63
74936;BME280;63501;55.570;37.488;2023-11-21T03:44:18;98404.09;;;23.41;19.69
74936;BME280;63501;55.570;37.488;2023-11-21T03:46:44;98409.22;;;23.43;19.75
74936;BME280;63501;55.570;37.488;2023-11-21T03:49:12;98407.19;;;23.43;19.93
74936;BME280;63501;55.570;37.488;2023-11-21T03:51:39;98408.47;;;23.42;19.67
74936;BME280;63501;55.570;37.488;2023-11-21T03:54:06;98403.59;;;23.43;19.58
74936;BME280;63501;55.570;37.488;2023-11-21T03:56:33;98411.53;;;23.44;19.79
74936;BME280;63501;55.570;37.488;2023-11-21T03:58:59;98403.84;;;23.45;19.98
74936;BME280;63501;55.570;37.488;2023-11-21T04:01:26;98413.88;;;23.46;19.90
74936;BME280;63501;55.570;37.488;2023-11-21T04:03:53;98410.56;;;23.47;20.17
74936;BME280;63501;55.570;37.488;2023-11-21T04:06:21;98412.84;;;23.49;20.36
74936;BME280;63501;55.570;37.488;2023-11-21T04:19:51;98391.59;;;23.54;20.71
74936;BME280;63501;55.570;37.488;2023-11-21T04:22:19;98394.41;;;23.54;20.67
74936;BME280;63501;55.570;37.488;2023-11-21T04:24:47;98401.59;;;23.55;20.83
74936;BME280;63501;55.570;37.488;2023-11-21T04:27:14;98393.13;;;23.55;20.88
74936;BME280;63501;55.570;37.488;2023-11-21T04:29:43;98401.84;;;23.57;20.84
74936;BME280;63501;55.570;37.488;2023-11-21T04:32:10;98404.69;;;23.57;20.65
74936;BME280;63501;55.570;37.488;2023-11-21T04:34:37;98401.84;;;23.57;20.86
74936;BME280;63501;55.570;37.488;2023-11-21T04:37:04;98415.47;;;23.58;20.72
74936;BME280;63501;55.570;37.488;2023-11-21T04:39:33;98416.25;;;23.59;20.97
74936;BME280;63501;55.570;37.488;2023-11-21T04:42:00;98431.13;;;23.59;20.58
74936;BME280;63501;55.570;37.488;2023-11-21T05:15:30;98450.09;;;23.59;20.25
74936;BME280;63501;55.570;37.488;2023-11-21T05:17:56;98450.88;;;23.59;20.46
74936;BME280;63501;55.570;37.488;2023-11-21T05:20:25;98446.00;;;23.60;20.61
74936;BME280;63501;55.570;37.488;2023-11-21T05:22:52;98437.53;;;23.60;20.52
74936;BME280;63501;55.570;37.488;2023-11-21T05:25:19;98429.84;;;23.60;20.22
74936;BME280;63501;55.570;37.488;2023-11-21T05:27:46;98441.13;;;23.60;20.41
74936;BME280;63501;55.570;37.488;2023-11-21T05:30:13;98449.09;;;23.62;20.22
74936;BME280;63501;55.570;37.488;2023-11-21T05:32:41;98443.00;;;23.63;20.23
74936;BME280;63501;55.570;37.488;2023-11-21T05:35:08;98439.41;;;23.63;20.15
74936;BME280;63501;55.570;37.488;2023-11-21T05:37:40;98434.00;;;23.65;20.54
74936;BME280;63501;55.570;37.488;2023-11-21T05:40:07;98444.00;;;23.66;20.08
74936;BME280;63501;55.570;37.488;2023-11-21T05:42:35;98440.69;;;23.67;19.99
74936;BME280;63501;55.570;37.488;2023-11-21T05:45:03;98446.31;;;23.67;20.12
74936;BME280;63501;55.570;37.488;2023-11-21T05:47:35;98448.66;;;23.69;19.97
74936;BME280;63501;55.570;37.488;2023-11-21T05:50:04;98445.84;;;23.69;19.88
74936;BME280;63501;55.570;37.488;2023-11-21T05:52:35;98463.53;;;23.69;20.03
74936;BME280;63501;55.570;37.488;2023-11-21T05:55:02;98461.47;;;23.70;20.16
74936;BME280;63501;55.570;37.488;2023-11-21T05:57:30;98458.66;;;23.70;19.94
74936;BME280;63501;55.570;37.488;2023-11-21T05:59:56;98449.69;;;23.71;19.79
74936;BME280;63501;55.570;37.488;2023-11-21T06:02:23;98460.97;;;23.71;20.11
74936;BME280;63501;55.570;37.488;2023-11-21T06:04:51;98463.28;;;23.73;20.01
74936;BME280;63501;55.570;37.488;2023-11-21T06:07:19;98461.22;;;23.73;19.96
74936;BME280;63501;55.570;37.488;2023-11-21T06:09:46;98464.84;;;23.74;19.79
74936;BME280;63501;55.570;37.488;2023-11-21T06:12:15;98474.84;;;23.75;19.79
74936;BME280;63501;55.570;37.488;2023-11-21T06:17:34;98481.28;;;23.75;19.58
74936;BME280;63501;55.570;37.488;2023-11-21T06:20:02;98476.41;;;23.76;19.67
74936;BME280;63501;55.570;37.488;2023-11-21T06:22:35;98476.41;;;23.76;19.44
74936;BME280;63501;55.570;37.488;2023-11-21T06:25:03;98480.25;;;23.79;19.72
74936;BME280;63501;55.570;37.488;2023-11-21T06:27:31;98479.22;;;23.76;19.85
74936;BME280;63501;55.570;37.488;2023-11-21T06:29:58;98475.88;;;23.78;19.87
74936;BME280;63501;55.570;37.488;2023-11-21T06:32:24;98475.38;;;23.79;19.45
74936;BME280;63501;55.570;37.488;2023-11-21T06:34:51;98487.47;;;23.80;19.61
74936;BME280;63501;55.570;37.488;2023-11-21T06:37:19;98484.63;;;23.80;19.68
74936;BME280;63501;55.570;37.488;2023-11-21T06:39:49;98487.47;;;23.80;19.90
74936;BME280;63501;55.570;37.488;2023-11-21T06:42:17;98484.63;;;23.80;19.34
74936;BME280;63501;55.570;37.488;2023-11-21T06:44:44;98483.84;;;23.79;19.53
74936;BME280;63501;55.570;37.488;2023-11-21T06:47:11;98491.81;;;23.81;19.49
74936;BME280;63501;55.570;37.488;2023-11-21T06:49:38;98498.25;;;23.81;19.60
74936;BME280;63501;55.570;37.488;2023-11-21T06:52:05;98489.78;;;23.81;19.86
74936;BME280;63501;55.570;37.488;2023-11-21T06:54:32;98481.31;;;23.81;19.52
74936;BME280;63501;55.570;37.488;2023-11-21T06:57:00;98490.53;;;23.82;19.44
74936;BME280;63501;55.570;37.488;2023-11-21T06:59:28;98479.25;;;23.82;19.36
74936;BME280;63501;55.570;37.488;2023-11-21T07:01:55;98486.94;;;23.81;19.34
74936;BME280;63501;55.570;37.488;2023-11-21T07:04:21;98489.78;;;23.81;19.31
74936;BME280;63501;55.570;37.488;2023-11-21T07:06:48;98493.38;;;23.82;19.26
74936;BME280;63501;55.570;37.488;2023-11-21T07:09:15;98493.38;;;23.82;19.20
74936;BME280;63501;55.570;37.488;2023-11-21T07:11:42;98491.31;;;23.82;19.25
74936;BME280;63501;55.570;37.488;2023-11-21T07:14:10;98489.22;;;23.77;19.36
74936;BME280;63501;55.570;37.488;2023-11-21T07:16:37;98485.66;;;23.82;19.30
74936;BME280;63501;55.570;37.488;2023-11-21T07:19:05;98486.44;;;23.83;19.36
74936;BME280;63501;55.570;37.488;2023-11-21T07:21:33;98490.53;;;23.82;19.20
74936;BME280;63501;55.570;37.488;2023-11-21T07:23:59;98509.00;;;23.83;19.25
74936;BME280;63501;55.570;37.488;2023-11-21T07:26:27;98507.47;;;23.82;19.16
74936;BME280;63501;55.570;37.488;2023-11-21T07:28:54;98503.88;;;23.81;19.22
74936;BME280;63501;55.570;37.488;2023-11-21T07:31:22;98502.59;;;23.82;19.19
74936;BME280;63501;55.570;37.488;2023-11-21T07:33:49;98495.41;;;23.81;19.20
74936;BME280;63501;55.570;37.488;2023-11-21T07:36:17;98501.81;;;23.82;19.25
74936;BME280;63501;55.570;37.488;2023-11-21T07:38:46;98503.88;;;23.81;19.21
74936;BME280;63501;55.570;37.488;2023-11-21T07:41:13;98497.47;;;23.81;18.98
74936;BME280;63501;55.570;37.488;2023-11-21T07:43:41;98506.72;;;23.81;19.29
74936;BME280;63501;55.570;37.488;2023-11-21T07:46:08;98505.94;;;23.81;19.18
74936;BME280;63501;55.570;37.488;2023-11-21T07:48:36;98507.47;;;23.82;19.28
74936;BME280;63501;55.570;37.488;2023-11-21T07:51:03;98501.06;;;23.81;19.17
74936;BME280;63501;55.570;37.488;2023-11-21T07:53:30;98498.25;;;23.81;19.26
74936;BME280;63501;55.570;37.488;2023-11-21T07:55:56;98495.41;;;23.81;18.85
74936;BME280;63501;55.570;37.488;2023-11-21T07:58:23;98495.41;;;23.81;19.10
74936;BME280;63501;55.570;37.488;2023-11-21T08:00:50;98495.41;;;23.81;19.17
74936;BME280;63501;55.570;37.488;2023-11-21T08:03:17;98493.88;;;23.80;19.07
74936;BME280;63501;55.570;37.488;2023-11-21T08:05:45;98488.22;;;23.80;18.94
74936;BME280;63501;55.570;37.488;2023-11-21T08:08:12;98491.81;;;23.81;18.95
74936;BME280;63501;55.570;37.488;2023-11-21T08:10:39;98492.31;;;23.79;19.11
74936;BME280;63501;55.570;37.488;2023-11-21T08:13:07;98498.75;;;23.80;18.83
74936;BME280;63501;55.570;37.488;2023-11-21T08:15:34;98502.34;;;23.80;19.01
74936;BME280;63501;55.570;37.488;2023-11-21T08:18:02;98491.53;;;23.79;18.96
74936;BME280;63501;55.570;37.488;2023-11-21T08:20:30;98497.94;;;23.79;18.86
74936;BME280;63501;55.570;37.488;2023-11-21T08:36:22;98490.50;;;23.76;18.96
74936;BME280;63501;55.570;37.488;2023-11-21T08:38:50;98488.47;;;23.77;18.94
74936;BME280;63501;55.570;37.488;2023-11-21T08:41:17;98495.63;;;23.78;18.67
74936;BME280;63501;55.570;37.488;2023-11-21T08:43:47;98482.81;;;23.77;18.92
74936;BME280;63501;55.570;37.488;2023-11-21T08:46:14;98482.03;;;23.76;18.92
74936;BME280;63501;55.570;37.488;2023-11-21T08:48:42;98486.41;;;23.77;18.80
74936;BME280;63501;55.570;37.488;2023-11-21T08:51:10;98485.63;;;23.77;18.96
74936;BME280;63501;55.570;37.488;2023-11-21T08:53:38;98485.13;;;23.78;18.88
74936;BME280;63501;55.570;37.488;2023-11-21T08:56:05;98491.53;;;23.79;18.99
74936;BME280;63501;55.570;37.488;2023-11-21T08:58:34;98497.94;;;23.79;18.90
74936;BME280;63501;55.570;37.488;2023-11-21T09:01:02;98489.78;;;23.81;18.83
74936;BME280;63501;55.570;37.488;2023-11-21T09:03:29;98497.47;;;23.81;18.86
74936;BME280;63501;55.570;37.488;2023-11-21T09:05:57;98504.66;;;23.82;18.90
74936;BME280;63501;55.570;37.488;2023-11-21T09:08:23;98495.41;;;23.81;18.93
74936;BME280;63501;55.570;37.488;2023-11-21T09:10:52;98509.78;;;23.83;18.84
74936;BME280;63501;55.570;37.488;2023-11-21T09:13:18;98503.38;;;23.83;18.85
74936;BME280;63501;55.570;37.488;2023-11-21T09:15:45;98509.00;;;23.83;18.92
74936;BME280;63501;55.570;37.488;2023-11-21T09:18:14;98502.09;;;23.84;18.42
74936;BME280;63501;55.570;37.488;2023-11-21T09:20:41;98503.63;;;23.85;18.86
74936;BME280;63501;55.570;37.488;2023-11-21T09:23:09;98514.91;;;23.85;18.88
74936;BME280;63501;55.570;37.488;2023-11-21T09:25:36;98507.25;;;23.85;18.76
74936;BME280;63501;55.570;37.488;2023-11-21T09:28:04;98517.25;;;23.86;18.73
74936;BME280;63501;55.570;37.488;2023-11-21T09:30:33;98513.66;;;23.86;18.83
74936;BME280;63501;55.570;37.488;2023-11-21T09:33:00;98517.25;;;23.86;18.72
74936;BME280;63501;55.570;37.488;2023-11-21T09:35:27;98513.66;;;23.86;18.93
74936;BME280;63501;55.570;37.488;2023-11-21T09:37:54;98511.63;;;23.86;18.78
74936;BME280;63501;55.570;37.488;2023-11-21T09:40:22;98520.09;;;23.86;18.69
74936;BME280;63501;55.570;37.488;2023-11-21T09:42:49;98520.09;;;23.86;18.77
74936;BME280;63501;55.570;37.488;2023-11-21T09:45:24;98526.50;;;23.87;18.78
74936;BME280;63501;55.570;37.488;2023-11-21T09:47:51;98516.50;;;23.86;18.67
74936;BME280;63501;55.570;37.488;2023-11-21T09:50:18;98521.38;;;23.85;18.91
74936;BME280;63501;55.570;37.488;2023-11-21T09:52:49;98519.31;;;23.86;18.71
74936;BME280;63501;55.570;37.488;2023-11-21T09:55:20;98519.31;;;23.86;18.76
74936;BME280;63501;55.570;37.488;2023-11-21T09:57:48;98526.50;;;23.87;18.80
74936;BME280;63501;55.570;37.488;2023-11-21T10:00:15;98525.72;;;23.86;18.68
74936;BME280;63501;55.570;37.488;2023-11-21T10:02:44;98526.47;;;23.81;18.80
74936;BME280;63501;55.570;37.488;2023-11-21T10:05:12;98538.31;;;23.85;18.76
74936;BME280;63501;55.570;37.488;2023-11-21T10:07:39;98532.16;;;23.87;18.55
74936;BME280;63501;55.570;37.488;2023-11-21T10:10:07;98545.50;;;23.86;18.93
74936;BME280;63501;55.570;37.488;2023-11-21T10:12:37;98540.63;;;23.87;18.92
74936;BME280;63501;55.570;37.488;2023-11-21T10:15:07;98539.84;;;23.86;18.54
74936;BME280;63501;55.570;37.488;2023-11-21T10:17:37;98538.56;;;23.87;18.68
74936;BME280;63501;55.570;37.488;2023-11-21T10:20:10;98541.38;;;23.87;18.60
74936;BME280;63501;55.570;37.488;2023-11-21T10:22:42;98534.97;;;23.87;18.93
74936;BME280;63501;55.570;37.488;2023-11-21T10:25:09;98539.31;;;23.88;18.69
74936;BME280;63501;55.570;37.488;2023-11-21T10:30:11;98532.91;;;23.87;18.59
74936;BME280;63501;55.570;37.488;2023-11-21T10:32:41;98537.28;;;23.88;18.86
74936;BME280;63501;55.570;37.488;2023-11-21T10:35:09;98539.31;;;23.88;18.49
74936;BME280;63501;55.570;37.488;2023-11-21T10:37:36;98538.81;;;23.89;18.53
74936;BME280;63501;55.570;37.488;2023-11-21T10:40:05;98544.47;;;23.89;18.80
74936;BME280;63501;55.570;37.488;2023-11-21T10:42:51;98531.13;;;23.90;18.50
74936;BME280;63501;55.570;37.488;2023-11-21T10:45:19;98537.53;;;23.90;18.83
74936;BME280;63501;55.570;37.488;2023-11-21T10:47:47;98534.72;;;23.90;18.55
74936;BME280;63501;55.570;37.488;2023-11-21T10:50:19;98530.34;;;23.89;18.70
74936;BME280;63501;55.570;37.488;2023-11-21T10:52:46;98532.69;;;23.91;18.77
74936;BME280;63501;55.570;37.488;2023-11-21T10:55:16;98533.16;;;23.89;18.39
74936;BME280;63501;55.570;37.488;2023-11-21T10:57:44;98533.16;;;23.89;18.56
74936;BME280;63501;55.570;37.488;2023-11-21T11:00:13;98530.34;;;23.89;18.60
74936;BME280;63501;55.570;37.488;2023-11-21T11:02:44;98536.00;;;23.89;18.59
74936;BME280;63501;55.570;37.488;2023-11-21T11:05:13;98537.53;;;23.90;18.56
74936;BME280;63501;55.570;37.488;2023-11-21T11:07:42;98548.06;;;23.90;18.84
74936;BME280;63501;55.570;37.488;2023-11-21T11:10:09;98536.00;;;23.89;18.51
74936;BME280;63501;55.570;37.488;2023-11-21T11:12:39;98539.59;;;23.90;18.63
74936;BME280;63501;55.570;37.488;2023-11-21T11:15:06;98541.94;;;23.91;18.76
74936;BME280;63501;55.570;37.488;2023-11-21T11:17:34;98543.19;;;23.90;18.83
74936;BME280;63501;55.570;37.488;2023-11-21T11:20:03;98544.75;;;23.91;18.54
74936;BME280;63501;55.570;37.488;2023-11-21T11:22:34;98550.41;;;23.91;18.62
74936;BME280;63501;55.570;37.488;2023-11-21T11:25:12;98538.34;;;23.91;18.70
74936;BME280;63501;55.570;37.488;2023-11-21T11:27:44;98549.13;;;23.92;18.58
74936;BME280;63501;55.570;37.488;2023-11-21T11:30:16;98553.22;;;23.91;18.45
74936;BME280;63501;55.570;37.488;2023-11-21T11:32:54;98535.47;;;23.85;18.57
74936;BME280;63501;55.570;37.488;2023-11-21T11:35:24;98546.00;;;23.90;18.45
74936;BME280;63501;55.570;37.488;2023-11-21T11:37:53;98548.81;;;23.90;18.59
74936;BME280;63501;55.570;37.488;2023-11-21T11:40:21;98558.09;;;23.91;18.36
74936;BME280;63501;55.570;37.488;2023-11-21T11:42:56;98565.75;;;23.90;18.37
74936;BME280;63501;55.570;37.488;2023-11-21T11:45:23;98564.22;;;23.89;18.69
74936;BME280;63501;55.570;37.488;2023-11-21T11:47:56;98556.53;;;23.90;18.40
74936;BME280;63501;55.570;37.488;2023-11-21T11:50:23;98569.88;;;23.89;18.67
74936;BME280;63501;55.570;37.488;2023-11-21T11:52:51;98568.34;;;23.88;18.76
74936;BME280;63501;55.570;37.488;2023-11-21T11:55:22;98562.69;;;23.88;18.53
74936;BME280;63501;55.570;37.488;2023-11-21T11:57:49;98573.97;;;23.88;18.42
74936;BME280;63501;55.570;37.488;2023-11-21T12:00:17;98571.66;;;23.87;18.69
74936;BME280;63501;55.570;37.488;2023-11-21T12:02:51;98570.13;;;23.86;18.41
74936;BME280;63501;55.570;37.488;2023-11-21T12:05:18;98582.66;;;23.85;18.72
74936;BME280;63501;55.570;37.488;2023-11-21T12:07:46;98583.47;;;23.85;18.71
74936;BME280;63501;55.570;37.488;2023-11-21T12:10:13;98590.38;;;23.84;18.52
74936;BME280;63501;55.570;37.488;2023-11-21T12:12:45;98586.78;;;23.84;18.57
74936;BME280;63501;55.570;37.488;2023-11-21T12:15:12;98594.47;;;23.83;18.58
74936;BME280;63501;55.570;37.488;2023-11-21T12:17:39;98600.13;;;23.83;18.48
74936;BME280;63501;55.570;37.488;2023-11-21T12:20:06;98594.47;;;23.83;18.49
74936;BME280;63501;55.570;37.488;2023-11-21T12:22:41;98589.59;;;23.84;18.49
74936;BME280;63501;55.570;37.488;2023-11-21T12:25:08;98591.66;;;23.83;18.71
74936;BME280;63501;55.570;37.488;2023-11-21T12:27:35;98597.28;;;23.83;18.29
74936;BME280;63501;55.570;37.488;2023-11-21T12:30:03;98594.47;;;23.83;18.47
74936;BME280;63501;55.570;37.488;2023-11-21T12:32:30;98593.19;;;23.84;18.54
74936;BME280;63501;55.570;37.488;2023-11-21T12:34:57;98601.66;;;23.84;18.37
74936;BME280;63501;55.570;37.488;2023-11-21T12:37:24;98602.44;;;23.85;18.53
74936;BME280;63501;55.570;37.488;2023-11-21T12:39:51;98598.84;;;23.84;18.64
74936;BME280;63501;55.570;37.488;2023-11-21T12:42:19;98599.59;;;23.85;18.29
74936;BME280;63501;55.570;37.488;2023-11-21T12:44:46;98603.72;;;23.84;18.48
74936;BME280;63501;55.570;37.488;2023-11-21T12:47:17;98611.41;;;23.83;18.60
74936;BME280;63501;55.570;37.488;2023-11-21T12:49:46;98602.94;;;23.83;18.34
74936;BME280;63501;55.570;37.488;2023-11-21T12:52:13;98594.47;;;23.83;18.29
74936;BME280;63501;55.570;37.488;2023-11-21T12:54:40;98597.28;;;23.83;18.55
74936;BME280;63501;55.570;37.488;2023-11-21T12:57:07;98599.84;;;23.81;18.61
74936;BME280;63501;55.570;37.488;2023-11-21T12:59:34;98602.69;;;23.81;18.34
74936;BME280;63501;55.570;37.488;2023-11-21T13:02:01;98596.25;;;23.81;18.48
74936;BME280;63501;55.570;37.488;2023-11-21T13:04:32;98600.63;;;23.82;18.46
74936;BME280;63501;55.570;37.488;2023-11-21T13:07:03;98598.31;;;23.80;18.53
74936;BME280;63501;55.570;37.488;2023-11-21T13:09:32;98616.03;;;23.81;18.31
74936;BME280;63501;55.570;37.488;2023-11-21T13:12:01;98606.75;;;23.74;18.40
74936;BME280;63501;55.570;37.488;2023-11-21T13:14:29;98615.25;;;23.80;18.56
74936;BME280;63501;55.570;37.488;2023-11-21T13:16:57;98611.16;;;23.81;18.30
74936;BME280;63501;55.570;37.488;2023-11-21T13:19:27;98616.03;;;23.81;18.32
74936;BME280;63501;55.570;37.488;2023-11-21T13:21:56;98623.72;;;23.80;18.53
74936;BME280;63501;55.570;37.488;2023-11-21T13:24:23;98624.97;;;23.79;18.45
74936;BME280;63501;55.570;37.488;2023-11-21T13:26:51;98627.78;;;23.79;18.32
74936;BME280;63501;55.570;37.488;2023-11-21T13:29:18;98623.44;;;23.78;18.24
74936;BME280;63501;55.570;37.488;2023-11-21T13:31:46;98631.41;;;23.80;18.34
74936;BME280;63501;55.570;37.488;2023-11-21T13:34:16;98631.91;;;23.78;18.40
74936;BME280;63501;55.570;37.488;2023-11-21T13:36:44;98639.88;;;23.80;18.34
74936;BME280;63501;55.570;37.488;2023-11-21T13:39:12;98639.38;;;23.81;18.38
74936;BME280;63501;55.570;37.488;2023-11-21T13:41:40;98637.31;;;23.82;18.52
74936;BME280;63501;55.570;37.488;2023-11-21T13:44:09;98635.28;;;23.82;18.28
74936;BME280;63501;55.570;37.488;2023-11-21T13:46:41;98642.47;;;23.83;18.29
74936;BME280;63501;55.570;37.488;2023-11-21T13:49:08;98633.22;;;23.83;18.14
74936;BME280;63501;55.570;37.488;2023-11-21T13:51:35;98638.88;;;23.83;18.38
74936;BME280;63501;55.570;37.488;2023-11-21T13:54:06;98641.69;;;23.83;18.32